• Join FlightAware (Why Join?)
  • Login
  • US Flag 
04:47AM EDT


 

Airport Tracker/Info


-or-


 

Live Flight TrackerFlight Track Log ✈ ASQ5941 ✈ 13-Apr-2013 ✈ KCID - KORD

Flight Track Log - Related Links

Times and Time Zones

All times are in EDT time to prevent confusion due to time zone crossing. See the ASQ5941 flight status page for this flight to view local times or setup timezone preferences in your user account.

Time Position Orientation Groundspeed Altitude Reporting Facility
EDT Latitude Longitude Course Direction KTS MPH feet Rate Location/Type
12:41PM 41.9247 -91.7311 54° Northeast 172 198 4,500  Level Chicago Center
12:42PM 41.9603 -91.6550 58° Northeast 222 255 7,300 2,580 Climbing Chicago Center
12:43PM 42.0019 -91.5675 57° Northeast 261 300 9,900 2,280 Climbing Chicago Center
12:44PM 42.0179 -91.4321 37° Northeast  Level FlightAware Approximate
12:44PM 42.0400 -91.4581 65° Northeast 321 369 12,000  Level Chicago Center
12:45PM 42.0563 -91.3708 56° Northeast  Level FlightAware Approximate
12:45PM 42.0703 -91.3228 73° East 375 432 13,100  Level Chicago Center
12:46PM 42.0864 -91.3006 62° Northeast  Level FlightAware Approximate
12:46PM 42.1125 -91.1425 72° East 422 486 14,900  Level Chicago Center
12:47PM 42.1356 -91.2016 54° Northeast  Level FlightAware Approximate
12:47PM 42.1472 -90.9908 73° East 430 495 16,500  Level Chicago Center
12:48PM 42.1817 -90.8381 73° East 432 497 18,400 1,860 Climbing Chicago Center
12:49PM 42.2158 -90.6847 73° East 432 497 20,400 1,260 Climbing Chicago Center
12:51PM 42.2508 -90.5297 73° East 435 501 21,000 240 Climbing Chicago Center
12:52PM 42.2875 -90.3597 74° East 469 540 21,000  Level Chicago Center
12:53PM 42.3281 -90.1550 75° East 474 545 21,000  Level Chicago Center
12:54PM 42.3350 -89.9783 87° East 475 547 21,000  Level Chicago Center
12:55PM 42.3397 -89.8078 88° East 476 548 21,000  Level Chicago Center
12:56PM 42.3467 -89.5983 87° East 476 548 21,000 -60 Level Chicago Center
12:57PM 42.3525 -89.4181 87° East 480 552 20,900 -960 Descending Chicago Center
12:58PM 42.3567 -89.2414 88° East 473 544 19,100 -1,860 Descending Chicago Center
12:59PM 42.3619 -89.0744 87° East 451 519 17,100 -1,980 Descending Chicago Center
01:00PM 42.3650 -88.9119 88° East 437 503 15,100 -1,920 Descending Chicago Center
01:01PM 42.3692 -88.7508 88° East 430 495 13,200 -1,920 Descending Chicago Center
01:02PM 42.3722 -88.5967 88° East 415 478 11,200 -1,620 Descending Chicago Center
01:03PM 42.3572 -88.4358 97° East 383 441 10,000 -600 Descending Chicago Center
01:04PM 42.3008 -88.3214 124° Southeast 377 434 10,000  Level Chicago Center
01:05PM 42.2328 -88.2094 129° Southeast 386 444 10,000  Level Chicago Center
01:06PM 42.1614 -88.1081 134° Southeast 375 432 10,000 -240 Level Chicago Center
01:06PM 42.1167 -88.0667 146° Southeast 313 360 9,700 -840 Descending Chicago TRACON
01:08PM 42.1000 -87.9500 101° East 323 372 8,700 -1,020 Descending Chicago TRACON
01:08PM 42.1000 -87.8333 90° East 309 356 7,700 -1,200 Descending Chicago TRACON
01:09PM 42.1000 -87.7333 90° East 294 338 6,500 -1,080 Descending Chicago TRACON
01:10PM 42.0833 -87.6333 103° East 279 321 5,700 -1,200 Descending Chicago TRACON
01:11PM 42.0833 -87.5333 90° East 288 331 4,300 -900 Descending Chicago TRACON
01:12PM 42.0833 -87.4333 90° East 267 307 4,000 -180 Descending Chicago TRACON
01:13PM 42.0667 -87.3667 109° East 249 287 4,000  Level Chicago TRACON
01:14PM 42.0144 -87.3714 184° South 237 273 4,000  Level Chicago Center
01:15PM 41.9992 -87.4361 252° West 198 228 4,000  Level Chicago Center
01:16PM 42.0000 -87.5000 271° West 166 191 4,100  Climbing Chicago TRACON
01:17PM 42.0000 -87.5667 270° West 163 188 4,000  Descending Chicago TRACON
01:18PM 42.0000 -87.6167 270° West 163 188 4,100  Climbing Chicago TRACON
01:19PM 42.0000 -87.6667 270° West 155 178 4,000 -480 Descending Chicago TRACON
01:20PM 42.0000 -87.7333 270° West 161 185 3,300 -780 Descending Chicago TRACON